METAR Data
IDs: Format: Raw Decoded Include TAF

Data at: 1925 UTC 26 Sep 2021

METAR for:KGSP (Greenville-Spartansb, SC, US)
Text:KGSP 261853Z 00000KT 10SM CLR 26/11 A3011 RMK AO2 SLP187 T02560106
Temperature: 25.6°C ( 78°F)
Dewpoint: 10.6°C ( 51°F) [RH = 39%]
Pressure (altimeter):30.11 inches Hg (1019.7 mb) [Sea level pressure: 1018.7 mb]
Winds:calm
Visibility:10 or more sm (16+ km)
Ceiling:at least 12,000 feet AGL
Clouds:sky clear below 12,000 feet AGL

TAF for:KGSP (Greenville-Spartansb, SC, US) issued at 1745 UTC 26 Sep 2021
Text:KGSP 261745Z 2618/2718 22006KT P6SM FEW045 FEW250
Forecast period:1800 UTC 26 September 2021 to 0000 UTC 27 September 2021
Forecast type:FROM: standard forecast or significant change
Winds:from the SW (220 degrees) at 7 MPH (6 knots; 3.1 m/s)
Visibility:6 or more sm (10+ km)
Ceiling:at least 12,000 feet AGL
Clouds: few clouds at 4500 feet AGL, few clouds at 25000 feet AGL
Text:FM270000 00000KT P6SM FEW250
Forecast period:0000 to 1400 UTC 27 September 2021
Forecast type:FROM: standard forecast or significant change
Winds:calm
Visibility:6 or more sm (10+ km)
Ceiling:at least 12,000 feet AGL
Clouds: few clouds at 25000 feet AGL
Text:FM271400 24003KT P6SM SKC
Forecast period:1400 to 1800 UTC 27 September 2021
Forecast type:FROM: standard forecast or significant change
Winds:from the WSW (240 degrees) at 3 MPH (3 knots; 1.5 m/s)
Visibility:6 or more sm (10+ km)
Ceiling:at least 12,000 feet AGL
Clouds:clear skies